sensor_id;sensor_type;location;lat;lon;timestamp;P1;durP1;ratioP1;P2;durP2;ratioP2
16579;SDS011;8402;51.466;6.806;2023-07-31T00:01:32;8.90;;;3.58;;
16579;SDS011;8402;51.466;6.806;2023-07-31T00:04:01;10.48;;;3.38;;
16579;SDS011;8402;51.466;6.806;2023-07-31T00:06:32;9.18;;;3.15;;
16579;SDS011;8402;51.466;6.806;2023-07-31T00:09:01;6.53;;;3.35;;
16579;SDS011;8402;51.466;6.806;2023-07-31T00:11:31;9.13;;;3.45;;
16579;SDS011;8402;51.466;6.806;2023-07-31T00:14:01;9.30;;;3.33;;
16579;SDS011;8402;51.466;6.806;2023-07-31T00:16:34;12.05;;;3.83;;
16579;SDS011;8402;51.466;6.806;2023-07-31T00:19:07;11.75;;;3.80;;
16579;SDS011;8402;51.466;6.806;2023-07-31T00:21:37;9.32;;;3.22;;
16579;SDS011;8402;51.466;6.806;2023-07-31T00:24:06;10.10;;;3.30;;
16579;SDS011;8402;51.466;6.806;2023-07-31T00:26:36;10.17;;;3.40;;
16579;SDS011;8402;51.466;6.806;2023-07-31T00:29:07;8.27;;;3.42;;
16579;SDS011;8402;51.466;6.806;2023-07-31T00:31:39;10.70;;;3.65;;
16579;SDS011;8402;51.466;6.806;2023-07-31T00:34:09;12.18;;;3.83;;
16579;SDS011;8402;51.466;6.806;2023-07-31T00:36:39;11.30;;;3.55;;
16579;SDS011;8402;51.466;6.806;2023-07-31T00:39:09;8.00;;;3.60;;
16579;SDS011;8402;51.466;6.806;2023-07-31T00:41:40;13.10;;;4.20;;
16579;SDS011;8402;51.466;6.806;2023-07-31T00:44:10;12.40;;;3.67;;
16579;SDS011;8402;51.466;6.806;2023-07-31T00:46:42;11.98;;;3.88;;
16579;SDS011;8402;51.466;6.806;2023-07-31T00:49:13;9.48;;;3.42;;
16579;SDS011;8402;51.466;6.806;2023-07-31T00:51:43;9.68;;;3.53;;
16579;SDS011;8402;51.466;6.806;2023-07-31T00:54:13;11.98;;;4.10;;
16579;SDS011;8402;51.466;6.806;2023-07-31T00:56:45;10.57;;;3.70;;
16579;SDS011;8402;51.466;6.806;2023-07-31T00:59:16;9.30;;;3.58;;
16579;SDS011;8402;51.466;6.806;2023-07-31T01:01:48;8.70;;;3.38;;
16579;SDS011;8402;51.466;6.806;2023-07-31T01:04:19;10.52;;;3.60;;
16579;SDS011;8402;51.466;6.806;2023-07-31T01:06:51;14.23;;;3.80;;
16579;SDS011;8402;51.466;6.806;2023-07-31T01:09:28;9.63;;;3.42;;
16579;SDS011;8402;51.466;6.806;2023-07-31T01:12:03;10.40;;;3.63;;
16579;SDS011;8402;51.466;6.806;2023-07-31T01:14:36;8.98;;;3.28;;
16579;SDS011;8402;51.466;6.806;2023-07-31T01:17:08;8.93;;;3.15;;
16579;SDS011;8402;51.466;6.806;2023-07-31T01:19:38;13.70;;;4.13;;
16579;SDS011;8402;51.466;6.806;2023-07-31T01:22:14;8.48;;;3.17;;
16579;SDS011;8402;51.466;6.806;2023-07-31T01:24:54;7.88;;;3.10;;
16579;SDS011;8402;51.466;6.806;2023-07-31T01:27:33;12.60;;;4.00;;
16579;SDS011;8402;51.466;6.806;2023-07-31T01:30:08;8.90;;;3.55;;
16579;SDS011;8402;51.466;6.806;2023-07-31T01:32:44;11.13;;;3.65;;
16579;SDS011;8402;51.466;6.806;2023-07-31T01:35:18;12.30;;;3.42;;
16579;SDS011;8402;51.466;6.806;2023-07-31T01:37:48;11.52;;;3.35;;
16579;SDS011;8402;51.466;6.806;2023-07-31T01:40:18;11.65;;;3.85;;
16579;SDS011;8402;51.466;6.806;2023-07-31T01:42:50;9.00;;;3.38;;
16579;SDS011;8402;51.466;6.806;2023-07-31T01:45:20;10.93;;;3.92;;
16579;SDS011;8402;51.466;6.806;2023-07-31T01:47:50;11.02;;;3.20;;
16579;SDS011;8402;51.466;6.806;2023-07-31T01:50:20;11.10;;;3.35;;
16579;SDS011;8402;51.466;6.806;2023-07-31T01:52:50;6.95;;;2.90;;
16579;SDS011;8402;51.466;6.806;2023-07-31T01:55:19;14.05;;;3.50;;
16579;SDS011;8402;51.466;6.806;2023-07-31T01:57:52;12.82;;;3.80;;
16579;SDS011;8402;51.466;6.806;2023-07-31T02:00:22;13.48;;;3.35;;
16579;SDS011;8402;51.466;6.806;2023-07-31T02:02:52;7.50;;;2.88;;
16579;SDS011;8402;51.466;6.806;2023-07-31T02:05:21;8.68;;;3.33;;
16579;SDS011;8402;51.466;6.806;2023-07-31T02:07:51;13.43;;;3.60;;
16579;SDS011;8402;51.466;6.806;2023-07-31T02:10:21;8.30;;;3.63;;
16579;SDS011;8402;51.466;6.806;2023-07-31T02:12:55;12.27;;;3.95;;
16579;SDS011;8402;51.466;6.806;2023-07-31T02:15:24;12.18;;;3.53;;
16579;SDS011;8402;51.466;6.806;2023-07-31T02:17:54;8.30;;;3.13;;
16579;SDS011;8402;51.466;6.806;2023-07-31T02:20:24;12.90;;;3.95;;
16579;SDS011;8402;51.466;6.806;2023-07-31T02:22:54;9.68;;;3.72;;
16579;SDS011;8402;51.466;6.806;2023-07-31T02:25:24;10.27;;;3.08;;
16579;SDS011;8402;51.466;6.806;2023-07-31T02:27:57;12.38;;;3.00;;
16579;SDS011;8402;51.466;6.806;2023-07-31T02:30:27;15.13;;;3.80;;
16579;SDS011;8402;51.466;6.806;2023-07-31T02:32:57;8.50;;;3.28;;
16579;SDS011;8402;51.466;6.806;2023-07-31T02:35:26;8.88;;;3.55;;
16579;SDS011;8402;51.466;6.806;2023-07-31T02:37:56;7.78;;;3.28;;
16579;SDS011;8402;51.466;6.806;2023-07-31T02:40:26;9.10;;;3.33;;
16579;SDS011;8402;51.466;6.806;2023-07-31T02:42:59;11.60;;;3.70;;
16579;SDS011;8402;51.466;6.806;2023-07-31T02:45:28;9.90;;;3.60;;
16579;SDS011;8402;51.466;6.806;2023-07-31T02:47:58;9.63;;;3.28;;
16579;SDS011;8402;51.466;6.806;2023-07-31T02:50:29;7.72;;;2.83;;
16579;SDS011;8402;51.466;6.806;2023-07-31T02:52:59;9.43;;;3.90;;
16579;SDS011;8402;51.466;6.806;2023-07-31T02:55:29;10.07;;;3.60;;
16579;SDS011;8402;51.466;6.806;2023-07-31T02:58:01;8.55;;;3.25;;
16579;SDS011;8402;51.466;6.806;2023-07-31T03:00:31;13.13;;;3.72;;
16579;SDS011;8402;51.466;6.806;2023-07-31T03:03:01;10.63;;;3.50;;
16579;SDS011;8402;51.466;6.806;2023-07-31T03:05:31;9.52;;;3.70;;
16579;SDS011;8402;51.466;6.806;2023-07-31T03:08:01;11.50;;;3.70;;
16579;SDS011;8402;51.466;6.806;2023-07-31T03:10:32;13.97;;;3.27;;
16579;SDS011;8402;51.466;6.806;2023-07-31T03:13:04;11.80;;;3.70;;
16579;SDS011;8402;51.466;6.806;2023-07-31T03:15:34;11.15;;;3.63;;
16579;SDS011;8402;51.466;6.806;2023-07-31T03:18:04;10.88;;;3.60;;
16579;SDS011;8402;51.466;6.806;2023-07-31T03:20:34;11.40;;;3.70;;
16579;SDS011;8402;51.466;6.806;2023-07-31T03:23:04;11.07;;;3.53;;
16579;SDS011;8402;51.466;6.806;2023-07-31T03:25:34;15.87;;;4.00;;
16579;SDS011;8402;51.466;6.806;2023-07-31T03:28:06;10.10;;;3.90;;
16579;SDS011;8402;51.466;6.806;2023-07-31T03:30:36;10.88;;;3.60;;
16579;SDS011;8402;51.466;6.806;2023-07-31T03:33:07;9.80;;;3.50;;
16579;SDS011;8402;51.466;6.806;2023-07-31T03:35:36;14.63;;;4.35;;
16579;SDS011;8402;51.466;6.806;2023-07-31T03:38:06;11.38;;;3.50;;
16579;SDS011;8402;51.466;6.806;2023-07-31T03:40:38;10.32;;;3.42;;
16579;SDS011;8402;51.466;6.806;2023-07-31T03:43:10;10.90;;;3.50;;
16579;SDS011;8402;51.466;6.806;2023-07-31T03:45:40;11.45;;;3.75;;
16579;SDS011;8402;51.466;6.806;2023-07-31T03:48:10;10.40;;;3.67;;
16579;SDS011;8402;51.466;6.806;2023-07-31T03:50:40;14.13;;;3.53;;
16579;SDS011;8402;51.466;6.806;2023-07-31T03:53:10;13.98;;;3.85;;
16579;SDS011;8402;51.466;6.806;2023-07-31T03:55:41;9.73;;;3.43;;
16579;SDS011;8402;51.466;6.806;2023-07-31T03:58:13;12.83;;;3.70;;
16579;SDS011;8402;51.466;6.806;2023-07-31T04:00:43;12.48;;;3.45;;
16579;SDS011;8402;51.466;6.806;2023-07-31T04:03:15;13.52;;;4.00;;
16579;SDS011;8402;51.466;6.806;2023-07-31T04:05:45;9.02;;;3.30;;
16579;SDS011;8402;51.466;6.806;2023-07-31T04:08:15;8.27;;;3.38;;
16579;SDS011;8402;51.466;6.806;2023-07-31T04:10:45;14.95;;;3.75;;
16579;SDS011;8402;51.466;6.806;2023-07-31T04:13:17;7.28;;;3.45;;
16579;SDS011;8402;51.466;6.806;2023-07-31T04:15:48;12.00;;;4.20;;
16579;SDS011;8402;51.466;6.806;2023-07-31T04:18:19;10.82;;;3.70;;
16579;SDS011;8402;51.466;6.806;2023-07-31T04:20:49;6.13;;;3.20;;
16579;SDS011;8402;51.466;6.806;2023-07-31T04:23:18;12.10;;;4.05;;
16579;SDS011;8402;51.466;6.806;2023-07-31T04:25:48;10.48;;;3.88;;
16579;SDS011;8402;51.466;6.806;2023-07-31T04:28:21;11.60;;;4.10;;
16579;SDS011;8402;51.466;6.806;2023-07-31T04:30:52;9.77;;;3.78;;
16579;SDS011;8402;51.466;6.806;2023-07-31T04:33:22;10.25;;;3.63;;
16579;SDS011;8402;51.466;6.806;2023-07-31T04:35:53;9.52;;;4.22;;
16579;SDS011;8402;51.466;6.806;2023-07-31T04:38:23;9.30;;;4.40;;
16579;SDS011;8402;51.466;6.806;2023-07-31T04:40:53;12.10;;;3.70;;
16579;SDS011;8402;51.466;6.806;2023-07-31T04:43:25;11.18;;;4.25;;
16579;SDS011;8402;51.466;6.806;2023-07-31T04:45:55;10.88;;;3.40;;
16579;SDS011;8402;51.466;6.806;2023-07-31T04:48:25;15.60;;;3.63;;
16579;SDS011;8402;51.466;6.806;2023-07-31T04:50:55;10.45;;;3.65;;
16579;SDS011;8402;51.466;6.806;2023-07-31T04:53:25;9.77;;;3.97;;
16579;SDS011;8402;51.466;6.806;2023-07-31T04:55:55;9.55;;;3.60;;
16579;SDS011;8402;51.466;6.806;2023-07-31T04:58:27;12.40;;;4.27;;
16579;SDS011;8402;51.466;6.806;2023-07-31T05:00:57;8.02;;;3.60;;
16579;SDS011;8402;51.466;6.806;2023-07-31T05:03:27;8.57;;;3.88;;
16579;SDS011;8402;51.466;6.806;2023-07-31T05:05:57;8.57;;;4.07;;
16579;SDS011;8402;51.466;6.806;2023-07-31T05:08:27;11.02;;;3.75;;
16579;SDS011;8402;51.466;6.806;2023-07-31T05:10:57;10.18;;;3.80;;
16579;SDS011;8402;51.466;6.806;2023-07-31T05:13:29;10.87;;;3.93;;
16579;SDS011;8402;51.466;6.806;2023-07-31T05:15:59;8.77;;;3.97;;
16579;SDS011;8402;51.466;6.806;2023-07-31T05:18:29;14.00;;;4.75;;
16579;SDS011;8402;51.466;6.806;2023-07-31T05:20:59;9.07;;;4.43;;
16579;SDS011;8402;51.466;6.806;2023-07-31T05:23:29;13.65;;;5.15;;
16579;SDS011;8402;51.466;6.806;2023-07-31T05:26:02;9.10;;;4.80;;
16579;SDS011;8402;51.466;6.806;2023-07-31T05:28:37;13.40;;;5.32;;
16579;SDS011;8402;51.466;6.806;2023-07-31T05:31:07;12.38;;;4.65;;
16579;SDS011;8402;51.466;6.806;2023-07-31T05:33:37;13.90;;;5.50;;
16579;SDS011;8402;51.466;6.806;2023-07-31T05:36:07;13.95;;;5.70;;
16579;SDS011;8402;51.466;6.806;2023-07-31T05:38:37;15.05;;;4.57;;
16579;SDS011;8402;51.466;6.806;2023-07-31T05:41:08;11.32;;;4.82;;
16579;SDS011;8402;51.466;6.806;2023-07-31T05:43:42;9.93;;;4.88;;
16579;SDS011;8402;51.466;6.806;2023-07-31T05:46:12;10.82;;;4.93;;
16579;SDS011;8402;51.466;6.806;2023-07-31T05:48:42;12.43;;;4.95;;
16579;SDS011;8402;51.466;6.806;2023-07-31T05:51:12;14.93;;;4.90;;
16579;SDS011;8402;51.466;6.806;2023-07-31T05:53:41;11.80;;;5.20;;
16579;SDS011;8402;51.466;6.806;2023-07-31T05:56:11;13.50;;;5.28;;
16579;SDS011;8402;51.466;6.806;2023-07-31T05:58:44;12.80;;;4.85;;
16579;SDS011;8402;51.466;6.806;2023-07-31T06:01:15;15.23;;;5.43;;
16579;SDS011;8402;51.466;6.806;2023-07-31T06:03:47;10.77;;;4.82;;
16579;SDS011;8402;51.466;6.806;2023-07-31T06:06:18;10.20;;;4.87;;
16579;SDS011;8402;51.466;6.806;2023-07-31T06:08:48;10.35;;;4.38;;
16579;SDS011;8402;51.466;6.806;2023-07-31T06:11:18;13.40;;;4.55;;
16579;SDS011;8402;51.466;6.806;2023-07-31T06:13:54;24.15;;;12.70;;
16579;SDS011;8402;51.466;6.806;2023-07-31T06:16:25;9.98;;;5.45;;
16579;SDS011;8402;51.466;6.806;2023-07-31T06:18:56;10.48;;;4.25;;
16579;SDS011;8402;51.466;6.806;2023-07-31T06:21:26;14.98;;;4.00;;
16579;SDS011;8402;51.466;6.806;2023-07-31T06:23:56;11.15;;;4.28;;
16579;SDS011;8402;51.466;6.806;2023-07-31T06:26:26;9.15;;;4.65;;
16579;SDS011;8402;51.466;6.806;2023-07-31T06:29:00;9.88;;;4.20;;
16579;SDS011;8402;51.466;6.806;2023-07-31T06:31:30;11.40;;;4.55;;
16579;SDS011;8402;51.466;6.806;2023-07-31T06:34:00;10.75;;;4.57;;
16579;SDS011;8402;51.466;6.806;2023-07-31T06:36:30;11.30;;;4.28;;
16579;SDS011;8402;51.466;6.806;2023-07-31T06:39:00;11.93;;;4.60;;
16579;SDS011;8402;51.466;6.806;2023-07-31T06:41:30;9.57;;;4.18;;
16579;SDS011;8402;51.466;6.806;2023-07-31T06:44:03;10.40;;;4.55;;
16579;SDS011;8402;51.466;6.806;2023-07-31T06:46:33;11.77;;;4.03;;
16579;SDS011;8402;51.466;6.806;2023-07-31T06:49:03;7.53;;;3.90;;
16579;SDS011;8402;51.466;6.806;2023-07-31T06:51:33;8.63;;;3.90;;
16579;SDS011;8402;51.466;6.806;2023-07-31T06:54:04;9.88;;;4.32;;
16579;SDS011;8402;51.466;6.806;2023-07-31T06:56:34;6.90;;;3.92;;
16579;SDS011;8402;51.466;6.806;2023-07-31T06:59:09;12.93;;;4.63;;
16579;SDS011;8402;51.466;6.806;2023-07-31T07:01:39;7.53;;;3.75;;
16579;SDS011;8402;51.466;6.806;2023-07-31T07:04:09;13.82;;;4.53;;
16579;SDS011;8402;51.466;6.806;2023-07-31T07:06:39;9.23;;;4.05;;
16579;SDS011;8402;51.466;6.806;2023-07-31T07:09:09;10.35;;;3.88;;
16579;SDS011;8402;51.466;6.806;2023-07-31T07:11:39;7.88;;;3.67;;
16579;SDS011;8402;51.466;6.806;2023-07-31T07:14:11;7.57;;;3.97;;
16579;SDS011;8402;51.466;6.806;2023-07-31T07:16:41;11.15;;;4.40;;
16579;SDS011;8402;51.466;6.806;2023-07-31T07:19:11;9.13;;;3.95;;
16579;SDS011;8402;51.466;6.806;2023-07-31T07:21:41;9.65;;;3.72;;
16579;SDS011;8402;51.466;6.806;2023-07-31T07:24:11;8.55;;;4.15;;
16579;SDS011;8402;51.466;6.806;2023-07-31T07:26:41;8.15;;;4.18;;
16579;SDS011;8402;51.466;6.806;2023-07-31T07:29:13;10.25;;;4.22;;
16579;SDS011;8402;51.466;6.806;2023-07-31T07:31:43;7.20;;;3.80;;
16579;SDS011;8402;51.466;6.806;2023-07-31T07:34:13;9.23;;;3.97;;
16579;SDS011;8402;51.466;6.806;2023-07-31T07:36:43;6.82;;;4.18;;
16579;SDS011;8402;51.466;6.806;2023-07-31T07:39:13;11.90;;;4.60;;
16579;SDS011;8402;51.466;6.806;2023-07-31T07:41:42;13.30;;;4.40;;
16579;SDS011;8402;51.466;6.806;2023-07-31T07:44:16;11.50;;;4.70;;
16579;SDS011;8402;51.466;6.806;2023-07-31T07:46:46;12.68;;;4.72;;
16579;SDS011;8402;51.466;6.806;2023-07-31T07:49:16;9.10;;;4.05;;
16579;SDS011;8402;51.466;6.806;2023-07-31T07:51:49;7.22;;;3.70;;
16579;SDS011;8402;51.466;6.806;2023-07-31T07:54:19;9.90;;;3.97;;
16579;SDS011;8402;51.466;6.806;2023-07-31T07:56:49;8.32;;;4.05;;
16579;SDS011;8402;51.466;6.806;2023-07-31T07:59:21;7.03;;;3.30;;
16579;SDS011;8402;51.466;6.806;2023-07-31T08:01:51;7.40;;;3.97;;
16579;SDS011;8402;51.466;6.806;2023-07-31T08:04:21;6.97;;;3.47;;
16579;SDS011;8402;51.466;6.806;2023-07-31T08:06:51;6.63;;;3.20;;
16579;SDS011;8402;51.466;6.806;2023-07-31T08:09:21;6.13;;;2.90;;
16579;SDS011;8402;51.466;6.806;2023-07-31T08:11:50;6.55;;;3.50;;
16579;SDS011;8402;51.466;6.806;2023-07-31T08:14:23;7.88;;;2.97;;
16579;SDS011;8402;51.466;6.806;2023-07-31T08:16:55;10.40;;;3.25;;
16579;SDS011;8402;51.466;6.806;2023-07-31T08:19:25;5.22;;;3.00;;
16579;SDS011;8402;51.466;6.806;2023-07-31T08:21:55;8.25;;;3.45;;
16579;SDS011;8402;51.466;6.806;2023-07-31T08:24:25;9.68;;;3.42;;
16579;SDS011;8402;51.466;6.806;2023-07-31T08:26:55;9.52;;;3.55;;
16579;SDS011;8402;51.466;6.806;2023-07-31T08:29:28;8.02;;;3.35;;
16579;SDS011;8402;51.466;6.806;2023-07-31T08:31:57;6.07;;;2.40;;
16579;SDS011;8402;51.466;6.806;2023-07-31T08:34:27;5.55;;;3.15;;
16579;SDS011;8402;51.466;6.806;2023-07-31T08:36:57;7.93;;;3.17;;
16579;SDS011;8402;51.466;6.806;2023-07-31T08:39:27;5.50;;;3.03;;
16579;SDS011;8402;51.466;6.806;2023-07-31T08:41:58;8.02;;;3.10;;
16579;SDS011;8402;51.466;6.806;2023-07-31T08:44:31;8.57;;;2.78;;
16579;SDS011;8402;51.466;6.806;2023-07-31T08:47:03;6.80;;;2.88;;
16579;SDS011;8402;51.466;6.806;2023-07-31T08:49:34;10.82;;;3.60;;
16579;SDS011;8402;51.466;6.806;2023-07-31T08:52:07;10.70;;;3.75;;
16579;SDS011;8402;51.466;6.806;2023-07-31T08:54:37;5.03;;;2.38;;
16579;SDS011;8402;51.466;6.806;2023-07-31T08:57:06;7.15;;;2.60;;
16579;SDS011;8402;51.466;6.806;2023-07-31T08:59:39;7.38;;;3.10;;
16579;SDS011;8402;51.466;6.806;2023-07-31T09:02:11;5.68;;;2.95;;
16579;SDS011;8402;51.466;6.806;2023-07-31T09:04:43;6.68;;;2.65;;
16579;SDS011;8402;51.466;6.806;2023-07-31T09:07:13;5.35;;;2.90;;
16579;SDS011;8402;51.466;6.806;2023-07-31T09:09:45;7.25;;;2.75;;
16579;SDS011;8402;51.466;6.806;2023-07-31T09:12:15;6.78;;;3.42;;
16579;SDS011;8402;51.466;6.806;2023-07-31T09:14:48;6.78;;;2.88;;
16579;SDS011;8402;51.466;6.806;2023-07-31T09:17:28;7.03;;;3.00;;
16579;SDS011;8402;51.466;6.806;2023-07-31T09:20:03;6.38;;;2.90;;
16579;SDS011;8402;51.466;6.806;2023-07-31T09:22:43;4.85;;;2.65;;
16579;SDS011;8402;51.466;6.806;2023-07-31T09:25:14;6.20;;;2.65;;
16579;SDS011;8402;51.466;6.806;2023-07-31T09:27:45;5.43;;;2.70;;
16579;SDS011;8402;51.466;6.806;2023-07-31T09:30:19;5.55;;;3.25;;
16579;SDS011;8402;51.466;6.806;2023-07-31T09:32:50;7.95;;;2.90;;
16579;SDS011;8402;51.466;6.806;2023-07-31T09:35:30;7.13;;;3.20;;
16579;SDS011;8402;51.466;6.806;2023-07-31T09:38:01;4.78;;;2.65;;
16579;SDS011;8402;51.466;6.806;2023-07-31T09:40:34;5.40;;;2.75;;
16579;SDS011;8402;51.466;6.806;2023-07-31T09:43:05;3.63;;;2.08;;
16579;SDS011;8402;51.466;6.806;2023-07-31T09:45:40;5.25;;;2.78;;
16579;SDS011;8402;51.466;6.806;2023-07-31T09:48:12;5.65;;;2.67;;
16579;SDS011;8402;51.466;6.806;2023-07-31T09:50:43;4.70;;;2.90;;
16579;SDS011;8402;51.466;6.806;2023-07-31T09:53:14;5.10;;;2.75;;
16579;SDS011;8402;51.466;6.806;2023-07-31T09:55:45;4.10;;;1.80;;
16579;SDS011;8402;51.466;6.806;2023-07-31T09:58:15;3.83;;;2.50;;
16579;SDS011;8402;51.466;6.806;2023-07-31T10:00:47;4.97;;;2.70;;
16579;SDS011;8402;51.466;6.806;2023-07-31T10:03:18;6.78;;;2.30;;
16579;SDS011;8402;51.466;6.806;2023-07-31T10:05:49;5.20;;;2.92;;
16579;SDS011;8402;51.466;6.806;2023-07-31T10:08:20;5.35;;;2.45;;
16579;SDS011;8402;51.466;6.806;2023-07-31T10:10:53;5.78;;;2.50;;
16579;SDS011;8402;51.466;6.806;2023-07-31T10:13:23;3.72;;;2.55;;
16579;SDS011;8402;51.466;6.806;2023-07-31T10:15:56;4.05;;;2.38;;
16579;SDS011;8402;51.466;6.806;2023-07-31T10:18:28;2.90;;;1.83;;
16579;SDS011;8402;51.466;6.806;2023-07-31T10:20:59;3.90;;;2.00;;
16579;SDS011;8402;51.466;6.806;2023-07-31T10:23:29;4.38;;;2.63;;
16579;SDS011;8402;51.466;6.806;2023-07-31T10:25:59;5.35;;;2.95;;
16579;SDS011;8402;51.466;6.806;2023-07-31T10:28:32;7.80;;;3.28;;
16579;SDS011;8402;51.466;6.806;2023-07-31T10:31:06;5.95;;;2.90;;
16579;SDS011;8402;51.466;6.806;2023-07-31T10:33:37;3.78;;;2.65;;
16579;SDS011;8402;51.466;6.806;2023-07-31T10:36:14;7.53;;;3.00;;
16579;SDS011;8402;51.466;6.806;2023-07-31T10:38:46;4.57;;;2.95;;
16579;SDS011;8402;51.466;6.806;2023-07-31T10:41:18;4.95;;;2.80;;
16579;SDS011;8402;51.466;6.806;2023-07-31T10:43:48;6.03;;;3.00;;
16579;SDS011;8402;51.466;6.806;2023-07-31T10:46:21;7.00;;;3.17;;
16579;SDS011;8402;51.466;6.806;2023-07-31T10:48:57;5.80;;;3.17;;
16579;SDS011;8402;51.466;6.806;2023-07-31T10:51:34;5.53;;;3.05;;
16579;SDS011;8402;51.466;6.806;2023-07-31T10:54:10;5.85;;;2.67;;
16579;SDS011;8402;51.466;6.806;2023-07-31T10:56:44;5.63;;;2.85;;
16579;SDS011;8402;51.466;6.806;2023-07-31T10:59:14;5.07;;;3.03;;
16579;SDS011;8402;51.466;6.806;2023-07-31T11:01:53;6.78;;;3.40;;
16579;SDS011;8402;51.466;6.806;2023-07-31T11:04:24;7.50;;;3.20;;
16579;SDS011;8402;51.466;6.806;2023-07-31T11:06:57;5.72;;;3.20;;
16579;SDS011;8402;51.466;6.806;2023-07-31T11:09:30;7.50;;;3.33;;
16579;SDS011;8402;51.466;6.806;2023-07-31T11:12:01;4.57;;;2.67;;
16579;SDS011;8402;51.466;6.806;2023-07-31T11:14:31;4.35;;;2.53;;
16579;SDS011;8402;51.466;6.806;2023-07-31T11:17:08;7.47;;;3.08;;
16579;SDS011;8402;51.466;6.806;2023-07-31T11:19:38;7.28;;;3.08;;
16579;SDS011;8402;51.466;6.806;2023-07-31T11:22:07;7.55;;;3.28;;
16579;SDS011;8402;51.466;6.806;2023-07-31T11:24:35;10.00;;;3.22;;
16579;SDS011;8402;51.466;6.806;2023-07-31T11:27:07;5.30;;;2.97;;
16579;SDS011;8402;51.466;6.806;2023-07-31T11:29:37;11.45;;;5.40;;
16579;SDS011;8402;51.466;6.806;2023-07-31T11:32:15;6.50;;;3.60;;
16579;SDS011;8402;51.466;6.806;2023-07-31T11:34:52;6.15;;;2.83;;
16579;SDS011;8402;51.466;6.806;2023-07-31T11:37:22;6.90;;;2.92;;
16579;SDS011;8402;51.466;6.806;2023-07-31T11:39:58;8.05;;;3.00;;
16579;SDS011;8402;51.466;6.806;2023-07-31T11:42:30;3.83;;;2.80;;
16579;SDS011;8402;51.466;6.806;2023-07-31T11:45:01;5.18;;;2.60;;
16579;SDS011;8402;51.466;6.806;2023-07-31T11:47:35;4.43;;;2.60;;
16579;SDS011;8402;51.466;6.806;2023-07-31T11:50:09;4.95;;;2.60;;
16579;SDS011;8402;51.466;6.806;2023-07-31T11:52:41;5.50;;;2.72;;
16579;SDS011;8402;51.466;6.806;2023-07-31T11:55:14;4.97;;;2.45;;
16579;SDS011;8402;51.466;6.806;2023-07-31T11:57:45;5.25;;;3.17;;
16579;SDS011;8402;51.466;6.806;2023-07-31T12:00:16;8.20;;;3.70;;
16579;SDS011;8402;51.466;6.806;2023-07-31T12:02:49;5.50;;;3.00;;
16579;SDS011;8402;51.466;6.806;2023-07-31T12:05:20;5.03;;;2.60;;
16579;SDS011;8402;51.466;6.806;2023-07-31T12:07:52;8.77;;;4.07;;
16579;SDS011;8402;51.466;6.806;2023-07-31T12:10:25;8.73;;;3.60;;
16579;SDS011;8402;51.466;6.806;2023-07-31T12:13:00;10.43;;;3.33;;
16579;SDS011;8402;51.466;6.806;2023-07-31T12:15:34;8.95;;;3.35;;
16579;SDS011;8402;51.466;6.806;2023-07-31T12:18:09;7.85;;;3.92;;
16579;SDS011;8402;51.466;6.806;2023-07-31T12:20:41;6.43;;;3.50;;
16579;SDS011;8402;51.466;6.806;2023-07-31T12:23:12;6.90;;;3.42;;
16579;SDS011;8402;51.466;6.806;2023-07-31T12:25:44;6.82;;;3.33;;
16579;SDS011;8402;51.466;6.806;2023-07-31T12:28:14;6.80;;;3.08;;
16579;SDS011;8402;51.466;6.806;2023-07-31T12:30:44;6.18;;;3.00;;
16579;SDS011;8402;51.466;6.806;2023-07-31T12:33:18;4.43;;;3.13;;
16579;SDS011;8402;51.466;6.806;2023-07-31T12:35:48;5.10;;;2.72;;
16579;SDS011;8402;51.466;6.806;2023-07-31T12:38:18;4.43;;;2.58;;
16579;SDS011;8402;51.466;6.806;2023-07-31T12:40:49;5.03;;;3.17;;
16579;SDS011;8402;51.466;6.806;2023-07-31T12:43:19;5.03;;;2.55;;
16579;SDS011;8402;51.466;6.806;2023-07-31T12:45:49;3.75;;;2.17;;
16579;SDS011;8402;51.466;6.806;2023-07-31T12:48:21;3.13;;;2.38;;
16579;SDS011;8402;51.466;6.806;2023-07-31T12:50:52;4.10;;;2.40;;
16579;SDS011;8402;51.466;6.806;2023-07-31T12:53:21;3.85;;;2.35;;
16579;SDS011;8402;51.466;6.806;2023-07-31T12:55:51;4.53;;;2.50;;
16579;SDS011;8402;51.466;6.806;2023-07-31T12:58:21;4.05;;;2.53;;
16579;SDS011;8402;51.466;6.806;2023-07-31T13:00:51;4.30;;;2.45;;
16579;SDS011;8402;51.466;6.806;2023-07-31T13:03:24;4.35;;;2.53;;
16579;SDS011;8402;51.466;6.806;2023-07-31T13:05:54;5.95;;;2.40;;
16579;SDS011;8402;51.466;6.806;2023-07-31T13:08:24;3.75;;;2.00;;
16579;SDS011;8402;51.466;6.806;2023-07-31T13:10:54;3.15;;;2.13;;
16579;SDS011;8402;51.466;6.806;2023-07-31T13:13:24;5.60;;;2.80;;
16579;SDS011;8402;51.466;6.806;2023-07-31T13:15:55;4.03;;;2.20;;
16579;SDS011;8402;51.466;6.806;2023-07-31T13:18:28;6.38;;;2.60;;
16579;SDS011;8402;51.466;6.806;2023-07-31T13:20:58;4.40;;;2.28;;
16579;SDS011;8402;51.466;6.806;2023-07-31T13:23:28;4.65;;;2.30;;
16579;SDS011;8402;51.466;6.806;2023-07-31T13:25:58;6.25;;;2.60;;
16579;SDS011;8402;51.466;6.806;2023-07-31T13:28:27;4.22;;;2.53;;
16579;SDS011;8402;51.466;6.806;2023-07-31T13:30:57;5.70;;;2.72;;
16579;SDS011;8402;51.466;6.806;2023-07-31T13:33:30;3.60;;;2.30;;
16579;SDS011;8402;51.466;6.806;2023-07-31T13:36:04;4.15;;;2.83;;
16579;SDS011;8402;51.466;6.806;2023-07-31T13:38:34;4.97;;;2.75;;
16579;SDS011;8402;51.466;6.806;2023-07-31T13:41:04;5.05;;;2.75;;
16579;SDS011;8402;51.466;6.806;2023-07-31T13:43:34;5.57;;;2.67;;
16579;SDS011;8402;51.466;6.806;2023-07-31T13:46:03;4.50;;;2.75;;
16579;SDS011;8402;51.466;6.806;2023-07-31T13:48:36;7.32;;;2.92;;
16579;SDS011;8402;51.466;6.806;2023-07-31T13:51:06;6.07;;;3.30;;
16579;SDS011;8402;51.466;6.806;2023-07-31T13:53:36;5.40;;;3.30;;
16579;SDS011;8402;51.466;6.806;2023-07-31T13:56:06;8.68;;;4.03;;
16579;SDS011;8402;51.466;6.806;2023-07-31T13:58:36;5.45;;;3.58;;
16579;SDS011;8402;51.466;6.806;2023-07-31T14:01:06;5.38;;;3.40;;
16579;SDS011;8402;51.466;6.806;2023-07-31T14:03:38;8.00;;;4.10;;
16579;SDS011;8402;51.466;6.806;2023-07-31T14:06:12;6.30;;;3.50;;
16579;SDS011;8402;51.466;6.806;2023-07-31T14:08:42;9.70;;;3.50;;
16579;SDS011;8402;51.466;6.806;2023-07-31T14:11:12;5.13;;;3.42;;
16579;SDS011;8402;51.466;6.806;2023-07-31T14:13:42;5.13;;;3.20;;
16579;SDS011;8402;51.466;6.806;2023-07-31T14:16:12;6.65;;;3.38;;
16579;SDS011;8402;51.466;6.806;2023-07-31T14:18:44;7.05;;;3.63;;
16579;SDS011;8402;51.466;6.806;2023-07-31T14:21:15;7.35;;;3.42;;
16579;SDS011;8402;51.466;6.806;2023-07-31T14:23:46;9.10;;;3.60;;
16579;SDS011;8402;51.466;6.806;2023-07-31T14:26:16;9.45;;;3.53;;
16579;SDS011;8402;51.466;6.806;2023-07-31T14:28:46;7.25;;;3.70;;
16579;SDS011;8402;51.466;6.806;2023-07-31T14:31:15;7.68;;;3.83;;
16579;SDS011;8402;51.466;6.806;2023-07-31T14:33:48;8.32;;;3.80;;
16579;SDS011;8402;51.466;6.806;2023-07-31T14:36:21;8.40;;;3.35;;
16579;SDS011;8402;51.466;6.806;2023-07-31T14:38:51;8.98;;;3.65;;
16579;SDS011;8402;51.466;6.806;2023-07-31T14:41:21;7.25;;;3.83;;
16579;SDS011;8402;51.466;6.806;2023-07-31T14:43:50;7.40;;;3.85;;
16579;SDS011;8402;51.466;6.806;2023-07-31T14:46:20;8.68;;;3.83;;
16579;SDS011;8402;51.466;6.806;2023-07-31T14:48:53;9.85;;;3.63;;
16579;SDS011;8402;51.466;6.806;2023-07-31T14:51:23;8.75;;;4.10;;
16579;SDS011;8402;51.466;6.806;2023-07-31T14:53:53;7.13;;;3.97;;
16579;SDS011;8402;51.466;6.806;2023-07-31T14:56:22;7.63;;;4.00;;
16579;SDS011;8402;51.466;6.806;2023-07-31T14:58:53;7.13;;;4.25;;
16579;SDS011;8402;51.466;6.806;2023-07-31T15:01:23;9.90;;;4.40;;
16579;SDS011;8402;51.466;6.806;2023-07-31T15:03:56;6.78;;;4.35;;
16579;SDS011;8402;51.466;6.806;2023-07-31T15:06:26;11.30;;;4.25;;
16579;SDS011;8402;51.466;6.806;2023-07-31T15:08:56;6.72;;;4.28;;
16579;SDS011;8402;51.466;6.806;2023-07-31T15:11:26;8.75;;;3.85;;
16579;SDS011;8402;51.466;6.806;2023-07-31T15:13:55;8.13;;;3.60;;
16579;SDS011;8402;51.466;6.806;2023-07-31T15:16:25;6.60;;;3.72;;
16579;SDS011;8402;51.466;6.806;2023-07-31T15:18:59;8.68;;;3.80;;
16579;SDS011;8402;51.466;6.806;2023-07-31T15:21:29;7.00;;;3.40;;